Impacts TAF Board
For situational awareness. Not to be used for flight planning purposes.
IDs:

KISP - Islip/Macarthur Arpt, NY, US

Issued at 0520 UTC 22 Oct 2021
Updated at 0605 UTC 22 Oct 2021
Potential Impact None Slight Moderate High
Time<<22/19Z 22/20Z 22/21Z 22/22Z 22/23Z 23/00Z 23/01Z 23/02Z 23/03Z 23/04Z 23/05Z 23/06Z 23/07Z>>
Type PRVL PRVL PRVL PRVL PRVL PRVL PRVL PRVL PRVL PRVL PRVL
VIS >6 >6 >6 >6 >6 >6 >6 >6 >6 >6 >6
CIG -- 50 50 50 50 60 60 60 60 60 60
Cover SCT BKN BKN BKN BKN BKN BKN BKN BKN BKN BKN
FltCat VFR VFR VFR VFR VFR VFR VFR VFR VFR VFR VFR
WX -- -- -- -- -- -- -- -- -- -- --
WDir 270 290 290 290 290 320 320 320 320 320 320
WSpd 10 8 8 8 8 6 6 6 6 6 6
WGst -- -- -- -- -- -- -- -- -- -- --
Raw TAF
KISP 220520Z 2206/2306 22009KT P6SM SCT250
  FM221000 24010KT P6SM SCT100 SCT250
  FM221400 27010KT P6SM FEW035 SCT250
  FM222000 29008KT P6SM BKN050
  FM230000 32006KT P6SM BKN060


METAR Board
Radar Display
Forecast Discussion
For situational awareness. Not to be used for flight planning purposes.